Time;durP1;ratioP1;P1;durP2;ratioP2;P2;SDS_P1;SDS_P2;PMS_P1;PMS_P2;Temp;Humidity;BMP_temperature;BMP_pressure;BME280_temperature;BME280_humidity;BME280_pressure;Samples;Min_cycle;Max_cycle;Signal;HPM_P1;HPM_P2
2023/06/24 00:01:49;;;;;;;4.20;3.40;;;15.70;99.90;;;;;;5012532;28;20026;-76
2023/06/24 00:04:17;;;;;;;6.82;3.47;;;15.70;99.90;;;;;;5012031;28;20095;-76
2023/06/24 00:06:43;;;;;;;8.43;3.67;;;15.70;99.90;;;;;;5011861;28;20042;-76
2023/06/24 00:09:08;;;;;;;4.60;3.35;;;15.70;99.90;;;;;;5012518;28;20533;-78
2023/06/24 00:11:34;;;;;;;10.20;4.68;;;15.60;99.90;;;;;;5011445;28;20029;-76
2023/06/24 00:14:00;;;;;;;6.50;3.88;;;15.60;99.90;;;;;;5011183;28;20033;-76
2023/06/24 00:16:28;;;;;;;8.32;4.15;;;15.40;99.90;;;;;;5011208;28;20487;-77
2023/06/24 00:18:58;;;;;;;6.47;3.97;;;15.40;99.90;;;;;;5011320;28;20026;-76
2023/06/24 00:21:29;;;;;;;7.07;3.85;;;15.40;99.90;;;;;;5011446;28;20022;-77
2023/06/24 00:23:56;;;;;;;15.52;4.53;;;15.30;99.90;;;;;;5011540;28;20026;-77
2023/06/24 00:26:21;;;;;;;6.72;4.72;;;15.40;99.90;;;;;;5010435;28;20025;-78
2023/06/24 00:28:47;;;;;;;6.05;3.58;;;15.40;99.90;;;;;;5011293;28;20045;-76
2023/06/24 00:31:13;;;;;;;7.68;4.50;;;15.40;99.90;;;;;;5012613;28;20386;-76
2023/06/24 00:33:38;;;;;;;8.13;4.60;;;15.40;99.90;;;;;;5011549;28;20033;-76
2023/06/24 00:36:08;;;;;;;10.10;4.28;;;15.50;99.90;;;;;;5011141;28;20501;-76
2023/06/24 00:38:33;;;;;;;12.55;4.10;;;15.50;99.90;;;;;;5012286;28;20398;-76
2023/06/24 00:40:59;;;;;;;9.25;4.47;;;15.30;99.90;;;;;;5011253;28;20024;-76
2023/06/24 00:43:25;;;;;;;8.70;4.00;;;15.30;99.90;;;;;;5012543;28;20046;-76
2023/06/24 00:45:53;;;;;;;7.90;3.78;;;15.40;99.90;;;;;;5012376;28;20088;-76
2023/06/24 00:48:20;;;;;;;5.93;4.72;;;15.40;99.90;;;;;;5011096;28;20046;-78
2023/06/24 00:50:45;;;;;;;15.18;5.15;;;15.40;99.90;;;;;;5011288;28;20026;-76
2023/06/24 00:53:14;;;;;;;16.50;5.15;;;15.40;99.90;;;;;;5011235;28;20095;-77
2023/06/24 00:55:40;;;;;;;15.80;6.75;;;15.40;99.90;;;;;;5011187;28;20025;-76
2023/06/24 00:58:06;;;;;;;11.85;5.90;;;15.40;99.90;;;;;;5013009;28;20026;-77
2023/06/24 01:00:34;;;;;;;8.18;6.05;;;15.40;99.90;;;;;;5015127;28;20034;-77
2023/06/24 01:03:00;;;;;;;7.38;5.25;;;15.50;99.90;;;;;;5016349;28;20141;-77
2023/06/24 01:05:28;;;;;;;12.98;6.68;;;15.50;99.90;;;;;;5016046;28;20022;-76
2023/06/24 01:07:55;;;;;;;14.43;5.60;;;15.40;99.90;;;;;;5015020;28;20037;-77
2023/06/24 01:10:23;;;;;;;12.32;6.00;;;15.40;99.90;;;;;;5014951;28;20036;-76
2023/06/24 01:12:49;;;;;;;13.80;4.60;;;15.40;99.90;;;;;;5015267;28;20033;-77
2023/06/24 01:15:15;;;;;;;11.93;5.22;;;15.40;99.90;;;;;;5015815;28;20026;-77
2023/06/24 01:18:00;;;;;;;9.73;4.90;;;15.40;99.90;;;;;;5014724;28;20030;-77
2023/06/24 01:20:46;;;;;;;7.93;3.67;;;15.30;99.90;;;;;;5014391;28;20030;-76
2023/06/24 01:23:35;;;;;;;19.77;4.10;;;15.40;99.90;;;;;;5015753;28;20395;-78
2023/06/24 01:26:19;;;;;;;7.63;3.88;;;15.30;99.90;;;;;;4995905;28;20034;-76
2023/06/24 01:29:15;;;;;;;7.30;4.20;;;15.40;99.90;;;;;;5014491;28;20040;-76
2023/06/24 01:31:50;;;;;;;5.45;4.00;;;15.40;99.90;;;;;;5014675;28;20379;-77
2023/06/24 01:34:29;;;;;;;11.55;3.35;;;15.40;99.90;;;;;;5015864;28;20113;-77
2023/06/24 01:37:14;;;;;;;5.28;3.67;;;15.40;99.90;;;;;;5014409;28;20512;-76
2023/06/24 01:39:52;;;;;;;4.22;3.15;;;15.40;99.90;;;;;;5014331;28;20486;-76
2023/06/24 01:42:21;;;;;;;4.88;3.45;;;15.40;99.90;;;;;;5015757;28;20022;-78
2023/06/24 01:44:48;;;;;;;5.72;3.80;;;15.30;99.90;;;;;;5014307;28;20030;-76
2023/06/24 01:47:19;;;;;;;7.63;3.58;;;15.30;99.90;;;;;;5015283;28;20026;-77
2023/06/24 01:49:45;;;;;;;4.95;3.78;;;15.20;99.90;;;;;;5014181;28;20026;-77
2023/06/24 01:52:12;;;;;;;7.15;3.67;;;15.20;99.90;;;;;;5014272;28;20058;-78
2023/06/24 01:54:41;;;;;;;4.35;3.67;;;15.20;99.90;;;;;;5015092;28;20465;-77
2023/06/24 01:57:09;;;;;;;5.05;3.45;;;15.20;99.90;;;;;;5015192;28;20077;-76
2023/06/24 01:59:40;;;;;;;4.97;3.20;;;15.20;99.90;;;;;;5015010;28;20034;-76
2023/06/24 02:02:07;;;;;;;4.70;3.10;;;15.30;99.90;;;;;;5013889;28;20125;-76
2023/06/24 02:04:33;;;;;;;5.38;3.42;;;15.40;99.90;;;;;;5014130;28;20061;-76
2023/06/24 02:07:01;;;;;;;4.63;3.08;;;15.30;99.90;;;;;;5013914;28;20030;-76
2023/06/24 02:09:30;;;;;;;3.80;3.03;;;15.30;99.90;;;;;;5013359;28;20037;-78
2023/06/24 02:11:58;;;;;;;5.82;3.13;;;15.20;99.90;;;;;;5014960;28;20029;-76
2023/06/24 02:14:26;;;;;;;3.85;2.67;;;14.90;99.90;;;;;;5013882;28;20399;-77
2023/06/24 02:16:56;;;;;;;2.38;2.17;;;14.90;99.90;;;;;;5013584;28;20056;-76
2023/06/24 02:19:27;;;;;;;2.70;2.05;;;15.00;99.90;;;;;;5013739;28;20049;-76
2023/06/24 02:21:54;;;;;;;8.30;3.13;;;14.90;99.90;;;;;;5013944;28;20026;-76
2023/06/24 02:24:20;;;;;;;2.40;2.20;;;14.90;99.90;;;;;;5013213;28;20018;-75
2023/06/24 02:26:47;;;;;;;4.63;1.92;;;14.90;99.90;;;;;;5013488;28;20018;-76
2023/06/24 02:29:13;;;;;;;2.03;1.65;;;14.80;99.90;;;;;;5013778;28;20068;-76
2023/06/24 02:31:40;;;;;;;1.80;1.65;;;14.70;99.90;;;;;;5013934;28;20046;-76
2023/06/24 02:34:06;;;;;;;1.60;1.33;;;14.70;99.90;;;;;;5014979;28;20083;-76
2023/06/24 02:36:31;;;;;;;2.67;1.90;;;14.70;99.90;;;;;;5013533;28;20030;-76
2023/06/24 02:38:57;;;;;;;2.10;1.67;;;14.60;99.90;;;;;;5014421;28;20037;-76
2023/06/24 02:41:23;;;;;;;1.90;1.75;;;14.60;99.90;;;;;;5013282;28;20541;-76
2023/06/24 02:43:48;;;;;;;1.90;1.70;;;14.60;99.90;;;;;;5013481;28;20022;-76
2023/06/24 02:46:15;;;;;;;1.60;1.50;;;14.60;99.90;;;;;;5013187;28;20509;-76
2023/06/24 02:48:43;;;;;;;4.60;2.20;;;14.60;99.90;;;;;;5013616;28;20105;-76
2023/06/24 02:51:10;;;;;;;1.92;1.83;;;14.50;99.90;;;;;;5014143;28;20049;-76
2023/06/24 02:53:38;;;;;;;4.07;1.83;;;14.50;99.90;;;;;;5013526;28;20076;-76
2023/06/24 02:56:05;;;;;;;1.80;1.70;;;14.50;99.90;;;;;;5013383;28;20022;-76
2023/06/24 02:58:32;;;;;;;3.22;2.30;;;14.50;99.90;;;;;;5014230;28;20026;-75
2023/06/24 03:01:00;;;;;;;2.42;1.75;;;14.60;99.90;;;;;;5013256;28;20032;-76
2023/06/24 03:03:27;;;;;;;3.03;2.13;;;14.50;99.90;;;;;;5015053;28;20022;-75
2023/06/24 03:05:56;;;;;;;3.10;1.75;;;14.40;99.90;;;;;;5013141;28;20030;-76
2023/06/24 03:08:24;;;;;;;2.00;1.80;;;14.40;99.90;;;;;;5012941;28;20022;-76
2023/06/24 03:10:56;;;;;;;1.70;1.60;;;14.50;99.90;;;;;;5012971;28;20117;-76
2023/06/24 03:13:23;;;;;;;1.27;1.17;;;14.40;99.90;;;;;;5013192;28;20038;-76
2023/06/24 03:15:48;;;;;;;1.48;1.38;;;14.50;99.90;;;;;;5013019;28;20026;-76
2023/06/24 03:18:15;;;;;;;3.25;1.55;;;14.50;99.90;;;;;;5014255;28;20100;-76
2023/06/24 03:20:41;;;;;;;3.70;2.17;;;14.40;99.90;;;;;;5013926;28;20108;-78
2023/06/24 03:23:07;;;;;;;2.67;2.35;;;16.90;99.90;;;;;;5013138;28;20030;-76
2023/06/24 03:25:33;;;;;;;2.53;1.85;;;17.10;99.90;;;;;;5014697;28;20028;-75
2023/06/24 03:28:00;;;;;;;2.10;1.52;;;17.50;99.90;;;;;;5016013;28;20356;-76
2023/06/24 03:30:26;;;;;;;2.15;1.95;;;17.60;99.90;;;;;;5017009;28;20105;-77
2023/06/24 03:32:52;;;;;;;3.75;1.92;;;18.00;99.90;;;;;;5015909;28;20479;-77
2023/06/24 03:35:18;;;;;;;2.88;1.70;;;18.50;99.90;;;;;;5015696;28;20021;-78
2023/06/24 03:37:44;;;;;;;2.45;1.40;;;18.60;99.90;;;;;;5015942;28;20482;-78
2023/06/24 03:40:10;;;;;;;1.75;1.60;;;18.50;99.90;;;;;;5013789;28;20036;-76
2023/06/24 03:42:36;;;;;;;1.60;1.50;;;18.00;99.90;;;;;;5015097;28;20022;-77
2023/06/24 03:45:03;;;;;;;1.58;1.48;;;18.10;99.90;;;;;;5014900;28;20101;-77
2023/06/24 03:47:29;;;;;;;1.65;1.42;;;17.80;99.90;;;;;;5013893;28;20026;-75
2023/06/24 03:49:54;;;;;;;1.20;1.10;;;18.00;99.90;;;;;;5013838;28;20057;-75
2023/06/24 03:52:20;;;;;;;2.42;1.90;;;18.00;99.90;;;;;;5013752;28;20034;-77
2023/06/24 03:54:46;;;;;;;4.63;1.13;;;17.70;99.90;;;;;;5013576;28;20025;-76
2023/06/24 03:57:13;;;;;;;1.15;1.15;;;17.60;99.90;;;;;;5013856;28;20080;-75
2023/06/24 03:59:38;;;;;;;4.30;1.83;;;17.80;99.90;;;;;;5015541;28;20030;-76
2023/06/24 04:02:08;;;;;;;2.30;2.00;;;17.60;99.90;;;;;;5016759;28;20505;-77
2023/06/24 04:04:35;;;;;;;2.25;2.05;;;18.00;99.90;;;;;;5015420;28;20018;-77
2023/06/24 04:07:01;;;;;;;5.60;2.50;;;17.70;99.90;;;;;;5016468;28;20037;-79
2023/06/24 04:09:26;;;;;;;3.65;2.03;;;17.40;99.90;;;;;;5017178;28;20025;-80
2023/06/24 04:11:52;;;;;;;2.70;2.50;;;17.80;99.90;;;;;;5017068;28;20030;-78
2023/06/24 04:14:17;;;;;;;2.35;2.15;;;18.00;99.90;;;;;;5016558;28;20056;-77
2023/06/24 04:16:43;;;;;;;3.95;2.90;;;17.90;99.90;;;;;;5016436;28;20030;-77
2023/06/24 04:19:09;;;;;;;3.03;2.70;;;18.00;99.90;;;;;;5017473;28;20030;-76
2023/06/24 04:21:34;;;;;;;4.45;2.55;;;17.80;99.90;;;;;;5018156;28;20481;-77
2023/06/24 04:24:00;;;;;;;2.85;2.40;;;17.40;99.90;;;;;;5016383;28;20501;-78
2023/06/24 04:26:26;;;;;;;3.05;2.83;;;17.70;99.90;;;;;;5016197;28;20062;-76
2023/06/24 04:28:51;;;;;;;3.30;2.40;;;17.80;99.90;;;;;;5017164;28;20060;-76
2023/06/24 04:31:17;;;;;;;3.88;3.00;;;18.60;99.90;;;;;;5014883;28;20116;-77
2023/06/24 04:33:42;;;;;;;4.97;2.47;;;19.00;99.90;;;;;;5015819;28;20034;-77
2023/06/24 04:36:08;;;;;;;5.78;2.85;;;18.90;99.90;;;;;;5016668;28;20026;-77
2023/06/24 04:38:34;;;;;;;4.15;2.58;;;18.50;99.90;;;;;;5016807;28;20033;-78
2023/06/24 04:41:00;;;;;;;3.55;3.10;;;18.80;99.90;;;;;;5016813;28;20021;-76
2023/06/24 04:43:27;;;;;;;2.50;2.30;;;18.50;99.90;;;;;;5015575;28;20041;-77
2023/06/24 04:45:55;;;;;;;5.63;2.60;;;18.50;99.90;;;;;;5015507;28;20026;-78
2023/06/24 04:48:22;;;;;;;2.70;2.50;;;18.70;99.90;;;;;;5016409;28;20523;-77
2023/06/24 04:50:48;;;;;;;2.65;2.45;;;18.60;99.90;;;;;;5015610;28;20502;-77
2023/06/24 04:53:14;;;;;;;2.47;2.20;;;18.60;99.90;;;;;;5016463;28;20026;-76
2023/06/24 04:55:39;;;;;;;2.53;2.33;;;18.90;99.90;;;;;;5014990;28;20026;-78
2023/06/24 04:58:05;;;;;;;2.33;2.13;;;19.00;99.90;;;;;;5015115;28;20030;-77
2023/06/24 05:00:31;;;;;;;2.53;2.30;;;19.00;99.90;;;;;;5015589;28;20069;-77
2023/06/24 05:02:56;;;;;;;5.18;2.35;;;18.80;99.90;;;;;;5016129;28;20030;-76
2023/06/24 05:05:22;;;;;;;3.33;2.83;;;18.80;99.90;;;;;;5015607;28;20026;-77
2023/06/24 05:07:48;;;;;;;7.63;2.78;;;18.90;99.90;;;;;;5014846;28;20041;-78
2023/06/24 05:10:14;;;;;;;3.42;2.35;;;18.70;99.90;;;;;;5016681;28;20077;-77
2023/06/24 05:12:40;;;;;;;3.80;2.60;;;18.70;99.90;;;;;;5014515;28;20029;-76
2023/06/24 05:15:06;;;;;;;6.80;2.97;;;18.60;99.90;;;;;;5014892;28;20022;-77
2023/06/24 05:17:31;;;;;;;3.60;3.00;;;18.60;99.90;;;;;;5013940;28;20117;-76
2023/06/24 05:19:57;;;;;;;3.45;3.15;;;18.90;99.90;;;;;;5014527;28;20062;-76
2023/06/24 05:22:23;;;;;;;3.22;2.53;;;19.20;99.90;;;;;;5015671;28;20030;-76
2023/06/24 05:24:49;;;;;;;2.65;2.45;;;19.10;99.90;;;;;;5015157;28;20018;-76
2023/06/24 05:27:14;;;;;;;2.70;2.35;;;19.00;99.90;;;;;;5014999;28;20103;-77
2023/06/24 05:29:40;;;;;;;3.63;2.90;;;19.30;99.90;;;;;;5015303;28;20022;-76
2023/06/24 05:32:06;;;;;;;3.50;3.20;;;19.60;99.90;;;;;;5015401;28;20074;-77
2023/06/24 05:34:32;;;;;;;2.95;2.65;;;19.40;99.90;;;;;;5015199;28;20080;-76
2023/06/24 05:36:58;;;;;;;4.20;3.33;;;19.50;99.90;;;;;;5015453;28;20034;-78
2023/06/24 05:39:24;;;;;;;3.65;3.05;;;19.70;99.90;;;;;;5013668;28;20026;-77
2023/06/24 05:41:50;;;;;;;4.30;3.63;;;19.70;99.90;;;;;;5014296;28;20383;-77
2023/06/24 05:44:17;;;;;;;3.50;3.20;;;19.60;99.90;;;;;;5011560;28;20068;-76
2023/06/24 05:46:44;;;;;;;5.07;3.17;;;19.50;99.90;;;;;;5015511;28;20022;-77
2023/06/24 05:49:09;;;;;;;3.50;2.85;;;19.40;99.90;;;;;;5018150;28;20300;-78
2023/06/24 05:51:35;;;;;;;4.45;3.15;;;19.30;99.90;;;;;;5018070;28;20030;-78
2023/06/24 05:54:01;;;;;;;3.35;3.03;;;19.50;99.90;;;;;;5017534;28;20022;-76
2023/06/24 05:56:26;;;;;;;3.28;2.17;;;19.50;99.90;;;;;;5018286;28;20034;-77
2023/06/24 05:58:52;;;;;;;3.47;2.67;;;19.50;99.90;;;;;;5017697;28;20406;-78
2023/06/24 06:01:18;;;;;;;2.42;2.22;;;19.70;99.90;;;;;;5019572;28;20036;-76
2023/06/24 06:03:43;;;;;;;4.80;3.15;;;19.90;99.90;;;;;;5017148;28;20029;-76
2023/06/24 06:06:09;;;;;;;3.63;2.47;;;19.80;99.90;;;;;;5017690;28;20038;-77
2023/06/24 06:08:35;;;;;;;2.67;2.47;;;19.90;99.90;;;;;;5016781;28;20022;-77
2023/06/24 06:11:03;;;;;;;4.35;3.00;;;19.70;99.90;;;;;;5016339;28;20109;-77
2023/06/24 06:13:30;;;;;;;4.25;3.65;;;19.50;99.90;;;;;;5013418;28;20017;-76
2023/06/24 06:15:56;;;;;;;5.50;3.78;;;19.40;99.90;;;;;;5015273;28;20076;-75
2023/06/24 06:18:23;;;;;;;3.42;3.05;;;19.30;99.90;;;;;;5016468;28;20036;-76
2023/06/24 06:20:48;;;;;;;3.40;3.10;;;19.20;99.90;;;;;;5016470;28;20486;-76
2023/06/24 06:23:15;;;;;;;8.75;3.80;;;19.30;99.90;;;;;;5015277;28;20037;-76
2023/06/24 06:25:41;;;;;;;4.03;3.10;;;19.40;99.90;;;;;;5018377;28;20034;-78
2023/06/24 06:28:07;;;;;;;7.18;3.22;;;19.30;99.90;;;;;;5018023;28;20072;-78
2023/06/24 06:30:32;;;;;;;3.78;3.33;;;19.40;99.90;;;;;;5016481;28;20022;-77
2023/06/24 06:32:58;;;;;;;6.45;4.55;;;19.40;99.90;;;;;;5017728;28;20030;-77
2023/06/24 06:35:24;;;;;;;4.03;3.05;;;19.50;99.90;;;;;;5017280;28;20491;-76
2023/06/24 06:37:53;;;;;;;3.83;3.10;;;19.60;99.90;;;;;;5015325;28;20117;-76
2023/06/24 06:40:20;;;;;;;3.88;3.47;;;19.80;99.90;;;;;;5016819;28;20021;-77
2023/06/24 06:42:45;;;;;;;3.30;2.70;;;19.90;99.90;;;;;;5019067;28;20053;-78
2023/06/24 06:45:11;;;;;;;3.33;3.03;;;20.00;99.90;;;;;;5017278;28;20022;-76
2023/06/24 06:47:36;;;;;;;2.83;2.50;;;20.20;99.90;;;;;;5014726;28;20068;-76
2023/06/24 06:50:02;;;;;;;3.90;2.90;;;20.40;99.90;;;;;;5016735;28;20026;-77
2023/06/24 06:52:28;;;;;;;3.38;2.75;;;20.50;99.90;;;;;;5013299;28;20124;-76
2023/06/24 06:54:54;;;;;;;4.30;2.67;;;20.70;99.90;;;;;;5015603;28;20069;-76
2023/06/24 06:57:20;;;;;;;3.30;3.03;;;20.70;99.90;;;;;;5017404;28;20029;-77
2023/06/24 06:59:46;;;;;;;4.20;2.90;;;20.50;99.90;;;;;;5016996;28;20105;-76
2023/06/24 07:02:11;;;;;;;2.72;2.45;;;20.50;99.90;;;;;;5015538;28;20030;-76
2023/06/24 07:04:37;;;;;;;3.55;2.67;;;20.60;99.90;;;;;;5015692;28;20188;-78
2023/06/24 07:07:03;;;;;;;2.50;2.30;;;21.10;99.90;;;;;;5015896;28;20030;-75
2023/06/24 07:09:28;;;;;;;2.85;2.53;;;21.00;99.90;;;;;;5017209;28;20025;-76
2023/06/24 07:11:54;;;;;;;2.67;2.38;;;21.10;99.90;;;;;;5015804;28;20473;-76
2023/06/24 07:14:20;;;;;;;3.60;2.47;;;21.00;99.90;;;;;;5016902;28;20033;-76
2023/06/24 07:16:45;;;;;;;2.35;2.13;;;21.10;99.90;;;;;;5015632;28;20030;-76
2023/06/24 07:19:11;;;;;;;2.50;2.15;;;20.90;99.90;;;;;;5015915;28;20474;-77
2023/06/24 07:21:38;;;;;;;3.15;2.45;;;20.80;99.90;;;;;;5016637;28;20064;-77
2023/06/24 07:24:04;;;;;;;2.80;2.60;;;21.00;99.90;;;;;;5016911;28;20025;-76
2023/06/24 07:26:30;;;;;;;2.40;1.92;;;21.10;99.90;;;;;;5016621;28;20022;-76
2023/06/24 07:28:59;;;;;;;2.38;2.17;;;21.20;99.90;;;;;;5015440;28;20032;-76
2023/06/24 07:31:25;;;;;;;2.25;2.05;;;21.50;99.90;;;;;;5015878;28;20521;-75
2023/06/24 07:33:51;;;;;;;2.10;1.90;;;21.70;99.90;;;;;;5015646;28;20049;-75
2023/06/24 07:36:17;;;;;;;1.95;1.58;;;21.70;99.90;;;;;;5014726;28;20430;-76
2023/06/24 07:38:43;;;;;;;2.65;1.85;;;21.60;99.90;;;;;;5013538;28;20018;-77
2023/06/24 07:41:08;;;;;;;2.13;1.80;;;21.70;99.90;;;;;;5014259;28;20018;-76
2023/06/24 07:43:34;;;;;;;1.55;1.45;;;21.40;99.90;;;;;;5015227;28;20061;-77
2023/06/24 07:46:00;;;;;;;1.67;1.50;;;21.30;99.90;;;;;;5016311;28;20026;-76
2023/06/24 07:48:25;;;;;;;1.50;1.40;;;21.20;99.90;;;;;;5016777;28;20076;-76
2023/06/24 07:50:51;;;;;;;1.50;1.40;;;21.20;99.90;;;;;;5014772;28;20030;-77
2023/06/24 07:53:17;;;;;;;1.65;1.55;;;21.30;99.90;;;;;;5015780;28;20021;-76
2023/06/24 07:55:42;;;;;;;13.30;2.28;;;21.30;99.90;;;;;;5014979;28;20504;-76
2023/06/24 07:58:08;;;;;;;2.65;1.63;;;21.40;99.90;;;;;;5016709;28;20095;-76
2023/06/24 08:00:34;;;;;;;2.95;1.40;;;21.50;99.90;;;;;;5015535;28;20026;-76
2023/06/24 08:03:00;;;;;;;1.50;1.35;;;21.70;99.90;;;;;;5013028;28;20069;-77
2023/06/24 08:05:25;;;;;;;1.02;1.02;;;21.80;99.90;;;;;;5014029;28;20053;-76
2023/06/24 08:07:52;;;;;;;2.53;1.67;;;22.00;99.90;;;;;;5014138;28;20088;-76
2023/06/24 08:10:18;;;;;;;1.40;1.30;;;22.10;99.90;;;;;;5014222;28;20099;-77
2023/06/24 08:12:43;;;;;;;1.55;1.20;;;22.20;99.80;;;;;;5012966;28;20029;-76
2023/06/24 08:15:09;;;;;;;1.40;1.30;;;22.20;99.00;;;;;;5014002;28;20034;-77
2023/06/24 08:17:35;;;;;;;1.38;1.27;;;22.30;98.70;;;;;;5013510;28;20037;-76
2023/06/24 08:20:02;;;;;;;1.30;0.90;;;22.30;99.00;;;;;;5013335;28;20030;-76
2023/06/24 08:22:28;;;;;;;1.08;0.98;;;22.50;97.90;;;;;;5014714;28;20474;-76
2023/06/24 08:24:54;;;;;;;1.25;1.15;;;22.40;96.40;;;;;;5014686;28;20044;-76
2023/06/24 08:27:19;;;;;;;1.38;1.27;;;22.40;96.10;;;;;;5013705;28;20064;-77
2023/06/24 08:29:45;;;;;;;2.22;1.00;;;22.50;97.00;;;;;;5015925;28;20030;-76
2023/06/24 08:32:11;;;;;;;0.80;0.70;;;22.70;96.40;;;;;;5015325;28;20089;-77
2023/06/24 08:34:36;;;;;;;1.02;0.93;;;22.90;96.20;;;;;;5016038;28;20026;-76
2023/06/24 08:37:02;;;;;;;0.82;0.82;;;23.10;95.10;;;;;;5014118;28;20098;-77
2023/06/24 08:39:28;;;;;;;0.65;0.65;;;23.40;95.40;;;;;;5012106;28;20132;-77
2023/06/24 08:41:53;;;;;;;0.77;0.77;;;23.40;90.80;;;;;;5012590;28;20022;-76
2023/06/24 08:44:19;;;;;;;0.82;0.70;;;23.40;91.60;;;;;;5013213;28;20394;-76
2023/06/24 08:46:45;;;;;;;1.00;1.00;;;23.40;90.40;;;;;;5012759;28;20029;-76
2023/06/24 08:49:29;;;;;;;0.60;0.60;;;23.50;91.40;;;;;;5013223;28;20030;-76
2023/06/24 08:52:07;;;;;;;1.10;1.00;;;23.60;91.60;;;;;;5014388;28;20065;-76
2023/06/24 08:54:36;;;;;;;0.73;0.73;;;23.70;91.00;;;;;;5015210;28;20033;-76
2023/06/24 08:57:04;;;;;;;2.10;1.20;;;23.70;90.10;;;;;;5015198;28;20101;-76
2023/06/24 08:59:31;;;;;;;2.10;0.70;;;23.60;89.90;;;;;;5015218;28;20026;-76
2023/06/24 09:01:57;;;;;;;1.08;0.60;;;23.80;89.80;;;;;;5015731;28;20026;-78
2023/06/24 09:04:22;;;;;;;0.80;0.77;;;24.00;90.00;;;;;;5012211;28;20025;-77
2023/06/24 09:06:48;;;;;;;0.50;0.50;;;24.20;90.20;;;;;;5012506;28;20042;-77
2023/06/24 09:09:18;;;;;;;1.45;0.50;;;24.40;87.10;;;;;;5012625;28;20100;-76
2023/06/24 09:11:55;;;;;;;0.30;0.30;;;24.50;84.50;;;;;;5011715;28;20077;-77
2023/06/24 09:14:21;;;;;;;1.10;0.47;;;24.60;85.30;;;;;;5012867;28;20026;-76
2023/06/24 09:17:00;;;;;;;0.47;0.47;;;24.50;83.40;;;;;;5012735;28;20037;-75
2023/06/24 09:19:32;;;;;;;0.50;0.50;;;24.30;83.10;;;;;;5012760;28;20030;-77
2023/06/24 09:22:06;;;;;;;1.95;0.30;;;24.40;82.20;;;;;;5016583;28;20018;-77
2023/06/24 09:24:33;;;;;;;0.40;0.40;;;24.50;81.10;;;;;;5017865;28;20032;-77
2023/06/24 09:26:59;;;;;;;0.38;0.38;;;24.60;78.60;;;;;;5016889;28;20026;-77
2023/06/24 09:29:31;;;;;;;0.80;0.50;;;24.70;78.60;;;;;;5015857;28;20028;-76
2023/06/24 09:31:58;;;;;;;0.38;0.38;;;24.80;79.80;;;;;;5017947;28;20080;-77
2023/06/24 09:34:24;;;;;;;1.23;0.50;;;24.90;77.20;;;;;;5015126;28;20053;-77
2023/06/24 09:36:54;;;;;;;0.32;0.30;;;25.10;77.70;;;;;;5016527;28;20398;-76
2023/06/24 09:39:30;;;;;;;0.35;0.35;;;25.00;77.30;;;;;;5017002;28;20072;-76
2023/06/24 09:42:00;;;;;;;0.30;0.30;;;24.90;75.80;;;;;;5016046;28;20026;-78
2023/06/24 09:44:27;;;;;;;0.77;0.57;;;24.80;78.80;;;;;;5016911;28;20107;-76
2023/06/24 09:46:53;;;;;;;0.70;0.70;;;24.70;78.90;;;;;;5015165;28;20407;-76
2023/06/24 09:49:18;;;;;;;0.80;0.80;;;24.60;79.50;;;;;;5016553;28;20095;-76
2023/06/24 09:51:46;;;;;;;0.60;0.40;;;24.50;79.10;;;;;;5016382;28;20510;-78
2023/06/24 09:54:14;;;;;;;0.90;0.60;;;24.30;80.40;;;;;;5015682;28;20486;-78
2023/06/24 09:56:48;;;;;;;1.65;0.70;;;24.20;82.30;;;;;;4996467;28;20030;-76
2023/06/24 09:59:14;;;;;;;0.40;0.40;;;24.10;80.40;;;;;;4994479;28;20033;-77
2023/06/24 10:01:43;;;;;;;1.20;0.73;;;24.00;82.30;;;;;;4994536;28;20088;-76
2023/06/24 10:04:10;;;;;;;0.98;0.70;;;23.90;83.30;;;;;;4995778;28;20097;-76
2023/06/24 10:06:35;;;;;;;0.52;0.10;;;23.90;83.30;;;;;;4995186;28;20054;-77
2023/06/24 10:09:01;;;;;;;0.00;0.00;;;23.50;76.90;;;;;;4995515;28;20438;-77
2023/06/24 10:11:28;;;;;;;0.10;0.03;;;23.10;77.50;;;;;;4994321;28;20026;-76
2023/06/24 10:13:54;;;;;;;0.00;0.00;;;22.90;77.90;;;;;;4996560;28;20534;-75
2023/06/24 10:16:20;;;;;;;0.00;0.00;;;22.80;76.80;;;;;;4996540;28;20033;-75
2023/06/24 10:18:46;;;;;;;0.00;0.00;;;22.90;77.80;;;;;;4996338;28;20018;-77
2023/06/24 10:21:14;;;;;;;1.48;0.00;;;23.00;78.10;;;;;;4995310;28;20061;-77
2023/06/24 10:23:55;;;;;;;0.17;0.08;;;23.20;78.30;;;;;;4995902;28;20026;-76
2023/06/24 10:26:28;;;;;;;0.50;0.15;;;23.40;76.20;;;;;;4995364;28;20030;-76
2023/06/24 10:29:05;;;;;;;0.25;0.10;;;23.40;74.30;;;;;;4996397;28;20549;-76
2023/06/24 10:31:43;;;;;;;0.08;0.08;;;23.50;74.20;;;;;;4995834;28;20376;-76
2023/06/24 10:34:29;;;;;;;0.45;0.00;;;23.60;73.30;;;;;;4995020;28;20055;-77
2023/06/24 10:37:12;;;;;;;;;;;23.90;72.00;;;;;;4997656;28;20022;-75
2023/06/24 10:39:48;;;;;;;1.48;0.00;;;24.10;71.60;;;;;;4996555;28;19972;-76
2023/06/24 10:42:30;;;;;;;0.00;0.00;;;24.20;71.00;;;;;;4997977;28;20046;-77
2023/06/24 10:45:09;;;;;;;0.57;0.00;;;23.90;70.30;;;;;;4995634;28;20022;-78
2023/06/24 10:47:35;;;;;;;0.10;0.00;;;23.70;70.80;;;;;;4995472;28;20026;-76
2023/06/24 10:50:01;;;;;;;0.00;0.00;;;23.80;71.70;;;;;;4996502;28;20037;-76
2023/06/24 10:52:27;;;;;;;2.28;0.08;;;24.10;71.90;;;;;;4996526;28;20034;-76
2023/06/24 10:54:53;;;;;;;0.03;0.03;;;24.20;69.90;;;;;;4995331;28;20065;-76
2023/06/24 10:57:27;;;;;;;0.05;0.03;;;24.10;70.60;;;;;;4997419;28;20037;-77
2023/06/24 10:59:54;;;;;;;0.00;0.00;;;24.10;70.70;;;;;;4996298;28;20061;-76
2023/06/24 11:02:25;;;;;;;0.57;0.03;;;24.00;72.80;;;;;;4997675;28;20093;-77
2023/06/24 11:04:52;;;;;;;0.00;0.00;;;23.80;71.40;;;;;;4996189;28;20026;-77
2023/06/24 11:07:39;;;;;;;0.08;0.08;;;23.60;70.10;;;;;;4997546;28;20168;-78
2023/06/24 11:10:15;;;;;;;0.80;0.00;;;23.50;71.60;;;;;;4997233;28;20034;-76
2023/06/24 11:12:43;;;;;;;0.00;0.00;;;23.50;72.20;;;;;;4996468;28;20037;-77
2023/06/24 11:15:11;;;;;;;0.17;0.10;;;23.30;71.00;;;;;;4994709;28;20415;-78
2023/06/24 11:17:38;;;;;;;1.13;0.00;;;23.40;71.30;;;;;;4997161;28;20026;-77
2023/06/24 11:20:13;;;;;;;0.00;0.00;;;23.40;72.00;;;;;;4996094;28;20058;-76
2023/06/24 11:22:43;;;;;;;0.00;0.00;;;23.40;70.80;;;;;;4997234;28;20482;-76
2023/06/24 11:25:21;;;;;;;0.45;0.10;;;23.30;71.20;;;;;;4996167;28;20061;-77
2023/06/24 11:27:47;;;;;;;0.57;0.10;;;23.30;71.60;;;;;;4996686;28;20088;-76
2023/06/24 11:30:13;;;;;;;0.00;0.00;;;23.40;71.40;;;;;;4997780;28;20495;-76
2023/06/24 11:32:41;;;;;;;0.10;0.05;;;23.30;70.30;;;;;;4996865;28;20487;-76
2023/06/24 11:35:09;;;;;;;0.13;0.00;;;23.20;71.60;;;;;;4996478;28;20038;-76
2023/06/24 11:37:35;;;;;;;0.00;0.00;;;23.20;72.60;;;;;;4997633;28;20026;-76
2023/06/24 11:40:06;;;;;;;0.05;0.05;;;23.20;74.30;;;;;;4997062;28;20019;-76
2023/06/24 11:42:35;;;;;;;0.75;0.00;;;23.20;73.20;;;;;;4994547;28;20026;-77
2023/06/24 11:45:05;;;;;;;0.43;0.08;;;23.20;72.00;;;;;;4994594;28;20026;-77
2023/06/24 11:47:35;;;;;;;0.30;0.10;;;23.10;72.50;;;;;;4994189;28;20384;-75
2023/06/24 11:50:02;;;;;;;0.10;0.10;;;23.10;74.00;;;;;;4995550;28;20118;-76
2023/06/24 11:52:48;;;;;;;1.45;0.17;;;23.20;73.80;;;;;;4995566;28;20109;-76
2023/06/24 11:55:23;;;;;;;0.10;0.10;;;23.20;72.10;;;;;;4993942;28;20129;-76
2023/06/24 11:57:51;;;;;;;0.08;0.08;;;23.20;71.90;;;;;;4995045;28;20494;-76
2023/06/24 12:00:20;;;;;;;0.03;0.03;;;23.20;72.10;;;;;;4995408;28;20623;-76
2023/06/24 12:02:48;;;;;;;0.00;0.00;;;23.10;71.70;;;;;;4996928;28;20014;-76
2023/06/24 12:05:25;;;;;;;0.13;0.00;;;23.20;70.60;;;;;;4996826;28;20022;-76
2023/06/24 12:07:52;;;;;;;1.13;0.10;;;23.10;71.70;;;;;;4994688;28;20026;-77
2023/06/24 12:10:17;;;;;;;0.00;0.00;;;23.30;73.20;;;;;;4994816;28;20476;-77
2023/06/24 12:12:43;;;;;;;0.10;0.10;;;23.30;72.50;;;;;;4995817;28;20121;-77
2023/06/24 12:15:09;;;;;;;0.20;0.10;;;23.40;71.80;;;;;;4994962;28;20054;-75
2023/06/24 12:17:34;;;;;;;0.08;0.00;;;23.50;72.70;;;;;;4994458;28;20049;-76
2023/06/24 12:20:00;;;;;;;4.55;0.20;;;23.60;72.10;;;;;;4995187;28;20057;-76
2023/06/24 12:22:27;;;;;;;2.45;0.10;;;23.80;71.60;;;;;;4994694;28;20457;-76
2023/06/24 12:24:52;;;;;;;1.33;0.05;;;23.90;69.20;;;;;;4994865;28;20102;-77
2023/06/24 12:27:18;;;;;;;0.85;0.10;;;23.70;69.80;;;;;;4994158;28;20060;-76
2023/06/24 12:29:43;;;;;;;0.10;0.10;;;23.50;69.30;;;;;;4993115;28;20398;-77
2023/06/24 12:32:09;;;;;;;0.30;0.10;;;23.40;70.80;;;;;;4993012;28;20116;-76
2023/06/24 12:34:34;;;;;;;0.40;0.00;;;23.60;71.20;;;;;;4994787;28;20072;-78
2023/06/24 12:37:00;;;;;;;0.22;0.20;;;23.60;70.80;;;;;;4995786;28;20030;-76
2023/06/24 12:39:26;;;;;;;1.67;0.13;;;23.50;70.60;;;;;;4994737;28;20030;-76
2023/06/24 12:41:51;;;;;;;0.00;0.00;;;23.40;70.70;;;;;;4997041;28;20463;-77
2023/06/24 12:44:17;;;;;;;0.20;0.20;;;23.40;70.20;;;;;;4995063;28;20025;-76
2023/06/24 12:46:42;;;;;;;0.17;0.00;;;23.50;71.30;;;;;;4996136;28;20033;-77
2023/06/24 12:49:08;;;;;;;0.30;0.20;;;23.50;70.10;;;;;;4994377;28;20022;-78